Pagina principale
METAR-TAF:

METAR-TAF

Aeroporti :

Aeroporto di Gioia del Colle

Gioia del Colle, Italia

latitudine: 40-46N, longitudine: 016-56E, altezza: 345 m

Osservazione

Il bollettino è stato emesso 1 ora e 1 minuti fa, alle 23:55 UTC
Vento 9 kt da nord-ovest
Temperature 16°C
Umidità 77%
Pressione 1015 hPa
Visibilità 10 km o più
nessuna nube inferiore a 1500 m e nessun cumulonembo

METAR: LIBV 142355Z 31009KT CAVOK 16/12 Q1015 RMK SKC VIS MIN 9999 WIND THR32 33011KT WIND THR14 31009KT BLU

Ora: 02:56 (00:56 UTC)

Previsione

Il bollettino è stato emesso 1 ora e 56 minuti fa, alle 23:00 UTC
Previsione valida dal 15 alle 00 UTC al 15 alle 09 UTC
Vento 10 kt da nord/nord-ovest
Visibilità 10 km o più
nessuna nube inferiore a 1500 m e nessun cumulonembo

TAF: LIBV 142300Z 1500/1509 34010KT CAVOK

Osservazioni e previsioni meteorologiche di più di 4000 aeroporti (messaggi METAR e TAF).

Le stazioni disponibili sono rappresentate dai dischi gialli e rossi sulla carta.

Puntare il mouse per vedere il nome della stazione.

Clicca sopra per visualizzare le osservazioni e previsioni meteorologiche.

Per cambiare la mappa : fare clic sui pulsanti verdi con una croce nera per ingrandire, il pulsante verde con un trattino per diminuire, o sulla freccia verde per le mappe adiacenti.


METAR-TAF: